TimeEDT,TemperatureF,Dew PointF,Humidity,Sea Level PressureIn,VisibilityMPH,Wind Direction,Wind SpeedMPH,Gust SpeedMPH,PrecipitationIn,Events,Conditions,WindDirDegrees,DateUTC
12:51 AM,66.9,51.1,57,29.81,10.0,East,3.5,-,N/A,,Clear,90,2013-04-11 04:51:00
1:51 AM,66.0,51.1,59,29.81,10.0,Calm,Calm,-,N/A,,Clear,0,2013-04-11 05:51:00
2:51 AM,62.1,52.0,70,29.81,10.0,East,3.5,-,N/A,,Clear,100,2013-04-11 06:51:00
3:51 AM,62.1,52.0,70,29.79,10.0,Calm,Calm,-,N/A,,Partly Cloudy,0,2013-04-11 07:51:00
4:51 AM,60.1,52.0,75,29.80,10.0,South,3.5,-,N/A,,Scattered Clouds,180,2013-04-11 08:51:00
5:51 AM,66.0,52.0,60,29.80,10.0,SSW,4.6,-,N/A,,Mostly Cloudy,210,2013-04-11 09:51:00
6:51 AM,66.9,52.0,59,29.79,10.0,South,5.8,-,N/A,,Clear,190,2013-04-11 10:51:00
7:51 AM,68.0,52.0,56,29.81,10.0,SSW,5.8,-,N/A,,Clear,200,2013-04-11 11:51:00
8:51 AM,71.1,54.0,55,29.81,10.0,SSW,6.9,-,N/A,,Clear,200,2013-04-11 12:51:00
9:51 AM,75.0,55.0,50,29.81,10.0,SSW,8.1,-,N/A,,Clear,200,2013-04-11 13:51:00
10:51 AM,77.0,55.0,47,29.81,10.0,SW,12.7,21.9,N/A,,Clear,230,2013-04-11 14:51:00
11:51 AM,77.0,54.0,45,29.80,10.0,SW,10.4,23.0,N/A,,Mostly Cloudy,220,2013-04-11 15:51:00
12:51 PM,78.1,55.0,45,29.78,10.0,South,9.2,-,N/A,,Clear,190,2013-04-11 16:51:00
1:51 PM,79.0,54.0,42,29.74,10.0,South,9.2,16.1,N/A,,Mostly Cloudy,170,2013-04-11 17:51:00
2:51 PM,82.0,55.0,39,29.71,10.0,SSW,4.6,-,N/A,,Mostly Cloudy,210,2013-04-11 18:51:00
3:51 PM,82.0,54.0,38,29.66,10.0,Variable,5.8,16.1,N/A,,Clear,0,2013-04-11 19:51:00
4:51 PM,81.0,52.0,36,29.63,10.0,SE,6.9,-,N/A,,Partly Cloudy,130,2013-04-11 20:51:00
5:51 PM,82.0,50.0,33,29.59,10.0,Variable,6.9,-,N/A,,Partly Cloudy,0,2013-04-11 21:51:00
6:51 PM,82.0,48.0,30,29.57,10.0,SSE,4.6,-,N/A,,Clear,150,2013-04-11 22:51:00
7:51 PM,80.1,46.0,30,29.53,10.0,SSE,5.8,-,N/A,,Clear,160,2013-04-11 23:51:00
8:51 PM,80.1,46.9,31,29.57,10.0,WSW,12.7,20.7,N/A,,Overcast,240,2013-04-12 00:51:00
9:10 PM,66.2,60.8,83,29.62,9.0,West,13.8,27.6,0.00,Rain,Light Rain,270,2013-04-12 01:10:00
9:51 PM,63.0,55.9,78,29.64,10.0,West,8.1,23.0,0.00,,Overcast,270,2013-04-12 01:51:00
10:51 PM,60.1,55.9,86,29.66,10.0,WSW,8.1,-,0.00,Rain,Light Rain,250,2013-04-12 02:51:00
10:59 PM,60.8,55.4,82,29.68,10.0,WSW,9.2,-,0.00,Rain,Light Rain,250,2013-04-12 02:59:00
11:29 PM,59.0,55.4,88,29.67,3.0,SSW,3.5,-,0.04,Rain,Rain,210,2013-04-12 03:29:00
11:51 PM,57.9,57.0,97,29.64,2.5,South,4.6,-,0.11,Rain,Rain,190,2013-04-12 03:51:00